createdAt,value
2022-10-21T00:00:55.203Z,12.70
2022-10-21T00:03:22.458Z,12.70
2022-10-21T00:05:49.334Z,12.70
2022-10-21T00:08:16.326Z,13.40
2022-10-21T00:10:43.022Z,12.70
2022-10-21T00:13:09.820Z,12.80
2022-10-21T00:15:36.583Z,12.70
2022-10-21T00:18:03.815Z,12.60
2022-10-21T00:20:31.874Z,14.20
2022-10-21T00:23:00.375Z,12.30
2022-10-21T00:25:27.095Z,12.00
2022-10-21T00:27:53.899Z,11.90
2022-10-21T00:30:20.630Z,12.00
2022-10-21T00:32:47.268Z,13.00
2022-10-21T00:35:14.057Z,12.20
2022-10-21T00:37:40.974Z,12.20
2022-10-21T00:40:08.096Z,12.30
2022-10-21T00:42:39.594Z,12.40
2022-10-21T00:45:08.744Z,12.50
2022-10-21T00:47:40.291Z,12.60
2022-10-21T00:50:08.018Z,12.60
2022-10-21T00:52:35.001Z,12.70
2022-10-21T00:55:03.464Z,12.70
2022-10-21T00:57:31.748Z,12.80
2022-10-21T01:00:00.203Z,12.70
2022-10-21T01:02:28.053Z,14.50
2022-10-21T01:04:57.911Z,12.60
2022-10-21T01:07:24.837Z,12.50
2022-10-21T01:09:51.569Z,13.10
2022-10-21T01:12:30.409Z,12.50
2022-10-21T01:14:59.734Z,12.50
2022-10-21T01:17:45.802Z,12.60
2022-10-21T01:20:35.888Z,12.60
2022-10-21T01:23:21.366Z,12.60
2022-10-21T01:26:06.905Z,12.60
2022-10-21T01:28:39.633Z,12.60
2022-10-21T01:31:12.464Z,12.60
2022-10-21T01:33:44.089Z,12.60
2022-10-21T01:36:10.756Z,12.60
2022-10-21T01:38:37.445Z,12.50
2022-10-21T01:41:19.739Z,12.40
2022-10-21T01:44:00.629Z,12.40
2022-10-21T01:46:30.322Z,11.10
2022-10-21T01:49:01.014Z,12.50
2022-10-21T01:51:28.251Z,12.90
2022-10-21T01:53:58.327Z,13.00
2022-10-21T01:56:25.856Z,12.60
2022-10-21T01:58:53.133Z,12.60
2022-10-21T02:01:20.658Z,14.30
2022-10-21T02:03:49.086Z,12.80
2022-10-21T02:06:15.769Z,12.70
2022-10-21T02:08:42.928Z,14.60
2022-10-21T02:11:11.002Z,12.70
2022-10-21T02:13:41.405Z,12.70
2022-10-21T02:16:09.862Z,12.90
2022-10-21T02:18:36.486Z,12.70
2022-10-21T02:21:05.003Z,12.70
2022-10-21T02:23:36.108Z,14.30
2022-10-21T02:26:02.958Z,12.70
2022-10-21T02:28:29.684Z,12.70
2022-10-21T02:31:02.480Z,13.40
2022-10-21T02:33:47.895Z,12.60
2022-10-21T02:36:16.927Z,12.70
2022-10-21T02:38:51.616Z,12.80
2022-10-21T02:41:20.215Z,12.80
2022-10-21T02:43:48.876Z,12.80
2022-10-21T02:46:15.763Z,12.80
2022-10-21T02:48:43.970Z,12.80
2022-10-21T02:51:10.864Z,12.90
2022-10-21T02:53:37.412Z,12.60
2022-10-21T02:56:04.425Z,12.70
2022-10-21T02:58:31.196Z,12.60
2022-10-21T03:00:57.934Z,13.10
2022-10-21T03:03:24.838Z,14.40
2022-10-21T03:05:51.579Z,13.00
2022-10-21T03:08:18.298Z,14.40
2022-10-21T03:10:50.584Z,12.60
2022-10-21T03:13:19.717Z,14.00
2022-10-21T03:15:46.546Z,12.60
2022-10-21T03:18:13.254Z,12.60
2022-10-21T03:20:39.929Z,12.50
2022-10-21T03:23:06.572Z,12.50
2022-10-21T03:25:35.638Z,12.50
2022-10-21T03:28:02.599Z,12.50
2022-10-21T03:30:29.286Z,12.50
2022-10-21T03:32:55.945Z,13.00
2022-10-21T03:35:22.691Z,13.80
2022-10-21T03:37:49.519Z,12.50
2022-10-21T03:40:16.442Z,12.50
2022-10-21T03:42:43.179Z,12.50
2022-10-21T03:45:10.056Z,12.50
2022-10-21T03:47:36.698Z,12.40
2022-10-21T03:50:05.463Z,12.60
2022-10-21T03:52:34.884Z,12.50
2022-10-21T03:55:01.527Z,12.50
2022-10-21T03:57:28.264Z,12.50
2022-10-21T03:59:54.914Z,13.00
2022-10-21T04:02:21.594Z,14.10
2022-10-21T04:04:48.287Z,12.50
2022-10-21T04:07:14.918Z,12.50
2022-10-21T04:09:41.549Z,12.50
2022-10-21T04:12:08.319Z,12.60
2022-10-21T04:14:35.042Z,13.50
2022-10-21T04:17:07.317Z,12.50
2022-10-21T04:19:35.357Z,12.70
2022-10-21T04:22:01.969Z,12.60
2022-10-21T04:24:28.658Z,13.00
2022-10-21T04:26:55.328Z,12.60
2022-10-21T04:29:22.160Z,12.70
2022-10-21T04:31:49.045Z,12.70
2022-10-21T04:34:15.864Z,14.60
2022-10-21T04:36:42.520Z,13.00
2022-10-21T04:39:09.206Z,13.30
2022-10-21T04:41:35.982Z,12.70
2022-10-21T04:44:03.609Z,12.70
2022-10-21T04:46:30.198Z,12.70
2022-10-21T04:48:56.792Z,13.40
2022-10-21T04:51:23.565Z,12.80
2022-10-21T04:53:50.364Z,12.80
2022-10-21T04:56:17.129Z,12.90
2022-10-21T04:58:43.974Z,13.30
2022-10-21T05:01:10.931Z,12.90
2022-10-21T05:03:38.217Z,13.00
2022-10-21T05:06:05.044Z,13.00
2022-10-21T05:08:31.835Z,13.00
2022-10-21T05:11:02.279Z,14.20
2022-10-21T05:13:29.228Z,13.10
2022-10-21T05:16:03.113Z,13.10
2022-10-21T05:18:29.902Z,13.10
2022-10-21T05:20:56.940Z,14.50
2022-10-21T05:23:24.098Z,13.10
2022-10-21T05:25:51.783Z,13.10
2022-10-21T05:28:18.926Z,13.10
2022-10-21T05:30:45.692Z,13.20
2022-10-21T05:33:16.200Z,13.60
2022-10-21T05:35:42.958Z,13.10
2022-10-21T05:38:09.591Z,13.30
2022-10-21T05:40:36.264Z,13.30
2022-10-21T05:43:02.991Z,13.20
2022-10-21T05:45:29.742Z,13.20
2022-10-21T05:47:56.927Z,13.30
2022-10-21T05:50:23.666Z,13.20
2022-10-21T05:52:50.374Z,13.30
2022-10-21T05:55:17.015Z,13.30
2022-10-21T05:57:43.775Z,13.30
2022-10-21T06:00:10.909Z,14.70
2022-10-21T06:02:37.831Z,13.30
2022-10-21T06:05:04.868Z,13.50
2022-10-21T06:07:31.482Z,13.30
2022-10-21T06:09:58.139Z,14.50
2022-10-21T06:12:24.880Z,13.30
2022-10-21T06:14:51.523Z,13.30
2022-10-21T06:17:19.159Z,13.40
2022-10-21T06:19:48.666Z,13.40
2022-10-21T06:22:17.659Z,13.70
2022-10-21T06:24:44.290Z,13.40
2022-10-21T06:27:11.042Z,13.50
2022-10-21T06:29:38.350Z,13.50
2022-10-21T06:32:05.230Z,13.60
2022-10-21T06:34:31.923Z,15.00
2022-10-21T06:36:58.720Z,13.60
2022-10-21T06:39:25.474Z,14.70
2022-10-21T06:41:52.212Z,13.60
2022-10-21T06:44:18.774Z,13.60
2022-10-21T06:46:45.479Z,13.60
2022-10-21T06:49:12.154Z,13.60
2022-10-21T06:51:38.865Z,13.60
2022-10-21T06:54:05.649Z,13.60
2022-10-21T06:56:32.774Z,13.60
2022-10-21T06:58:59.624Z,13.60
2022-10-21T07:01:35.000Z,13.80
2022-10-21T07:04:08.671Z,13.60
2022-10-21T07:06:35.659Z,13.60
2022-10-21T07:09:02.989Z,13.60
2022-10-21T07:11:29.791Z,13.90
2022-10-21T07:13:56.509Z,14.20
2022-10-21T07:16:27.706Z,14.50
2022-10-21T07:18:55.399Z,13.70
2022-10-21T07:21:23.841Z,13.80
2022-10-21T07:23:56.589Z,13.80
2022-10-21T07:26:26.656Z,15.00
2022-10-21T07:28:54.425Z,14.00
2022-10-21T07:31:21.765Z,14.80
2022-10-21T07:33:48.764Z,13.90
2022-10-21T07:36:18.934Z,13.90
2022-10-21T07:38:49.073Z,13.90
2022-10-21T07:41:17.828Z,13.90
2022-10-21T07:43:44.525Z,13.90
2022-10-21T07:46:11.336Z,15.40
2022-10-21T07:48:38.338Z,14.80
2022-10-21T07:51:06.500Z,13.90
2022-10-21T07:53:33.244Z,13.90
2022-10-21T07:56:11.820Z,13.90
2022-10-21T07:58:38.373Z,13.90
2022-10-21T08:01:05.998Z,14.00
2022-10-21T08:03:32.749Z,14.00
2022-10-21T08:05:59.771Z,14.00
2022-10-21T08:08:26.736Z,14.10
2022-10-21T08:10:54.207Z,14.00
2022-10-21T08:13:21.221Z,14.00
2022-10-21T08:15:49.131Z,14.10
2022-10-21T08:18:16.307Z,14.00
2022-10-21T08:20:44.050Z,15.30
2022-10-21T08:23:11.304Z,14.80
2022-10-21T08:25:38.255Z,15.10
2022-10-21T08:28:05.734Z,14.20
2022-10-21T08:30:33.076Z,14.20
2022-10-21T08:32:59.741Z,14.80
2022-10-21T08:35:27.047Z,14.90
2022-10-21T08:37:54.043Z,14.20
2022-10-21T08:40:21.147Z,14.60
2022-10-21T08:42:47.848Z,14.20
2022-10-21T08:45:28.090Z,15.10
2022-10-21T08:47:56.021Z,14.20
2022-10-21T08:50:24.547Z,14.20
2022-10-21T08:53:01.755Z,14.20
2022-10-21T08:55:34.959Z,14.20
2022-10-21T08:58:02.229Z,14.20
2022-10-21T09:00:32.095Z,14.90
2022-10-21T09:03:02.963Z,14.30
2022-10-21T09:05:29.736Z,14.30
2022-10-21T09:07:56.351Z,14.30
2022-10-21T09:10:52.396Z,14.20
2022-10-21T09:13:34.154Z,14.30
2022-10-21T09:16:08.370Z,14.40
2022-10-21T09:19:04.499Z,14.40
2022-10-21T09:21:49.470Z,14.40
2022-10-21T09:24:19.700Z,14.40
2022-10-21T09:26:48.864Z,14.40
2022-10-21T09:29:15.427Z,14.90
2022-10-21T09:31:43.497Z,14.50
2022-10-21T09:34:36.462Z,14.50
2022-10-21T09:37:06.744Z,14.50
2022-10-21T09:39:38.895Z,14.70
2022-10-21T09:42:12.378Z,14.70
2022-10-21T09:44:45.498Z,15.40
2022-10-21T09:47:22.348Z,16.20
2022-10-21T09:50:06.824Z,15.60
2022-10-21T09:52:35.991Z,14.90
2022-10-21T09:55:03.296Z,14.80
2022-10-21T09:57:33.993Z,15.70
2022-10-21T10:00:02.331Z,14.90
2022-10-21T10:02:35.174Z,14.80
2022-10-21T10:05:05.369Z,14.80
2022-10-21T10:07:34.011Z,16.50
2022-10-21T10:10:00.671Z,14.80
2022-10-21T10:12:27.923Z,15.30
2022-10-21T10:14:55.596Z,14.80
2022-10-21T10:17:33.943Z,15.00
2022-10-21T10:20:03.555Z,14.90
2022-10-21T10:22:30.774Z,15.00
2022-10-21T10:25:28.471Z,15.10
2022-10-21T10:27:55.047Z,15.00
2022-10-21T10:30:22.597Z,14.90
2022-10-21T10:32:52.692Z,14.90
2022-10-21T10:35:26.156Z,14.90
2022-10-21T10:37:53.179Z,15.80
2022-10-21T10:40:25.010Z,15.80
2022-10-21T10:42:54.794Z,14.90
2022-10-21T10:45:22.915Z,14.90
2022-10-21T10:47:53.465Z,15.70
2022-10-21T10:50:38.342Z,15.00
2022-10-21T10:53:21.896Z,15.00
2022-10-21T10:55:51.116Z,15.00
2022-10-21T10:58:18.737Z,15.20
2022-10-21T11:00:48.038Z,17.10
2022-10-21T11:03:20.126Z,15.20
2022-10-21T11:05:50.884Z,15.30
2022-10-21T11:08:17.479Z,15.40
2022-10-21T11:10:46.803Z,15.50
2022-10-21T11:13:15.437Z,17.40
2022-10-21T11:15:42.001Z,15.70
2022-10-21T11:18:26.839Z,15.80
2022-10-21T11:21:01.309Z,15.90
2022-10-21T11:23:43.338Z,16.00
2022-10-21T11:26:31.907Z,16.10
2022-10-21T11:29:05.528Z,16.20
2022-10-21T11:32:10.079Z,17.30
2022-10-21T11:34:40.912Z,16.40
2022-10-21T11:37:29.369Z,16.50
2022-10-21T11:40:04.805Z,16.60
2022-10-21T11:42:40.870Z,16.60
2022-10-21T11:45:26.641Z,16.50
2022-10-21T11:48:05.203Z,16.50
2022-10-21T11:50:38.007Z,16.50
2022-10-21T11:53:14.376Z,16.50
2022-10-21T11:55:58.917Z,17.80
2022-10-21T11:58:25.669Z,16.40
2022-10-21T12:01:04.537Z,16.30
2022-10-21T12:03:50.085Z,16.30
2022-10-21T12:06:24.229Z,16.30
2022-10-21T12:08:51.571Z,17.10
2022-10-21T12:11:41.464Z,16.30
2022-10-21T12:14:31.680Z,16.30
2022-10-21T12:16:59.985Z,17.60
2022-10-21T12:19:26.773Z,16.30
2022-10-21T12:21:53.512Z,16.30
2022-10-21T12:24:39.072Z,16.30
2022-10-21T12:27:19.257Z,16.30
2022-10-21T12:30:01.213Z,16.20
2022-10-21T12:32:34.018Z,16.20
2022-10-21T12:35:00.966Z,16.10
2022-10-21T12:37:43.219Z,16.10
2022-10-21T12:40:13.143Z,16.00
2022-10-21T12:42:44.766Z,16.00
2022-10-21T12:45:25.700Z,17.50
2022-10-21T12:47:52.620Z,16.00
2022-10-21T12:50:19.319Z,16.00
2022-10-21T12:52:46.202Z,16.00
2022-10-21T12:55:23.088Z,17.40
2022-10-21T12:58:12.646Z,16.00
2022-10-21T13:00:39.282Z,16.00
2022-10-21T13:03:13.333Z,16.80
2022-10-21T13:05:39.869Z,16.00
2022-10-21T13:08:27.046Z,16.50
2022-10-21T13:11:02.892Z,16.00
2022-10-21T13:13:39.828Z,16.00
2022-10-21T13:16:15.590Z,16.00
2022-10-21T13:18:51.763Z,15.90
2022-10-21T13:21:33.620Z,15.90
2022-10-21T13:24:13.148Z,15.80
2022-10-21T13:26:53.589Z,15.80
2022-10-21T13:29:24.159Z,15.70
2022-10-21T13:32:09.599Z,15.70
2022-10-21T13:34:41.479Z,15.60
2022-10-21T13:37:13.437Z,15.60
2022-10-21T13:39:41.045Z,15.60
2022-10-21T13:42:15.542Z,15.50
2022-10-21T13:44:50.103Z,15.60
2022-10-21T13:47:33.730Z,15.50
2022-10-21T13:50:03.664Z,15.40
2022-10-21T13:52:30.589Z,15.50
2022-10-21T13:54:58.755Z,15.90
2022-10-21T13:57:28.268Z,15.60
2022-10-21T14:00:06.567Z,15.40
2022-10-21T14:02:33.280Z,15.40
2022-10-21T14:04:59.990Z,16.00
2022-10-21T14:07:27.503Z,16.70
2022-10-21T14:09:58.699Z,15.50
2022-10-21T14:12:35.672Z,15.30
2022-10-21T14:15:09.136Z,15.30
2022-10-21T14:17:39.136Z,15.30
2022-10-21T14:20:07.647Z,15.70
2022-10-21T14:22:34.361Z,15.30
2022-10-21T14:25:04.460Z,15.30
2022-10-21T14:27:33.129Z,15.30
2022-10-21T14:30:03.007Z,15.80
2022-10-21T14:32:29.909Z,15.30
2022-10-21T14:34:59.524Z,15.30
2022-10-21T14:37:26.251Z,15.20
2022-10-21T14:39:52.834Z,15.10
2022-10-21T14:42:20.849Z,15.10
2022-10-21T14:44:48.615Z,17.00
2022-10-21T14:47:25.912Z,15.10
2022-10-21T14:49:53.888Z,15.10
2022-10-21T14:52:21.911Z,15.20
2022-10-21T14:54:56.773Z,15.10
2022-10-21T14:57:30.631Z,15.00
2022-10-21T14:59:59.014Z,15.00
2022-10-21T15:02:28.130Z,15.00
2022-10-21T15:04:59.293Z,15.00
2022-10-21T15:10:09.611Z,14.90
2022-10-21T15:12:43.368Z,14.80
2022-10-21T15:15:28.880Z,14.90
2022-10-21T15:18:01.892Z,14.90
2022-10-21T15:20:31.101Z,14.90
2022-10-21T15:22:57.844Z,15.90
2022-10-21T15:25:24.706Z,16.10
2022-10-21T15:27:51.750Z,14.90
2022-10-21T15:30:19.739Z,14.90
2022-10-21T15:32:47.193Z,14.90
2022-10-21T15:35:22.857Z,14.90
2022-10-21T15:37:50.422Z,14.90
2022-10-21T15:40:17.974Z,14.90
2022-10-21T15:42:44.906Z,15.10
2022-10-21T15:45:15.634Z,14.80
2022-10-21T15:47:42.353Z,14.80
2022-10-21T15:50:13.526Z,15.90
2022-10-21T15:52:40.183Z,14.70
2022-10-21T15:55:07.282Z,15.50
2022-10-21T15:57:33.905Z,14.60
2022-10-21T16:00:00.522Z,14.60
2022-10-21T16:02:27.209Z,14.60
2022-10-21T16:04:54.737Z,14.50
2022-10-21T16:07:23.117Z,14.50
2022-10-21T16:09:49.956Z,14.50
2022-10-21T16:12:17.747Z,15.20
2022-10-21T16:14:44.459Z,15.20
2022-10-21T16:17:12.185Z,14.80
2022-10-21T16:19:38.763Z,15.20
2022-10-21T16:22:14.128Z,14.30
2022-10-21T16:24:40.786Z,14.30
2022-10-21T16:27:12.354Z,15.60
2022-10-21T16:29:39.054Z,14.30
2022-10-21T16:32:06.242Z,14.20
2022-10-21T16:34:32.953Z,14.20
2022-10-21T16:37:02.727Z,14.20
2022-10-21T16:39:29.417Z,14.10
2022-10-21T16:41:56.136Z,14.10
2022-10-21T16:44:22.775Z,14.10
2022-10-21T16:46:54.330Z,14.10
2022-10-21T16:49:23.015Z,14.10
2022-10-21T16:51:49.992Z,14.00
2022-10-21T16:54:16.861Z,14.10
2022-10-21T16:56:43.530Z,14.00
2022-10-21T16:59:10.150Z,14.00
2022-10-21T17:01:36.921Z,14.00
2022-10-21T17:04:03.669Z,14.00
2022-10-21T17:06:30.552Z,13.90
2022-10-21T17:08:57.932Z,13.90
2022-10-21T17:11:35.374Z,14.00
2022-10-21T17:14:02.823Z,13.90
2022-10-21T17:16:29.773Z,13.90
2022-10-21T17:18:56.405Z,14.00
2022-10-21T17:21:24.542Z,13.90
2022-10-21T17:23:52.047Z,13.90
2022-10-21T17:26:18.968Z,14.00
2022-10-21T17:28:45.608Z,13.90
2022-10-21T17:31:16.305Z,15.00
2022-10-21T17:33:43.561Z,13.90
2022-10-21T17:36:10.573Z,14.40
2022-10-21T17:38:37.191Z,14.80
2022-10-21T17:41:03.881Z,15.10
2022-10-21T17:43:30.494Z,13.80
2022-10-21T17:45:57.568Z,14.70
2022-10-21T17:48:25.345Z,13.80
2022-10-21T17:50:59.777Z,14.30
2022-10-21T17:53:27.003Z,13.80
2022-10-21T17:55:58.063Z,14.30
2022-10-21T17:58:24.998Z,13.70
2022-10-21T18:00:52.036Z,13.90
2022-10-21T18:03:18.694Z,13.80
2022-10-21T18:05:46.538Z,13.70
2022-10-21T18:08:13.343Z,13.80
2022-10-21T18:10:39.962Z,14.10
2022-10-21T18:13:06.753Z,14.20
2022-10-21T18:15:33.559Z,13.80
2022-10-21T18:18:00.146Z,13.60
2022-10-21T18:20:26.767Z,13.50
2022-10-21T18:22:53.506Z,13.80
2022-10-21T18:25:20.180Z,14.30
2022-10-21T18:27:46.738Z,13.80
2022-10-21T18:30:13.474Z,13.50
2022-10-21T18:32:40.413Z,14.00
2022-10-21T18:35:07.818Z,15.40
2022-10-21T18:37:34.999Z,13.50
2022-10-21T18:40:03.975Z,14.20
2022-10-21T18:42:30.825Z,15.30
2022-10-21T18:44:57.482Z,15.10
2022-10-21T18:47:24.172Z,14.20
2022-10-21T18:49:50.854Z,13.50
2022-10-21T18:52:17.507Z,13.50
2022-10-21T18:54:44.233Z,14.50
2022-10-21T18:57:12.934Z,13.50
2022-10-21T18:59:39.907Z,14.60
2022-10-21T19:02:08.201Z,13.60
2022-10-21T19:04:36.317Z,13.70
2022-10-21T19:07:03.009Z,13.60
2022-10-21T19:09:29.587Z,13.60
2022-10-21T19:11:56.261Z,14.80
2022-10-21T19:14:22.906Z,13.70
2022-10-21T19:16:50.282Z,13.70
2022-10-21T19:19:16.828Z,15.50
2022-10-21T19:21:43.500Z,14.50
2022-10-21T19:24:10.468Z,14.60
2022-10-21T19:26:37.998Z,14.00
2022-10-21T19:29:06.398Z,14.80
2022-10-21T19:31:36.256Z,14.30
2022-10-21T19:34:05.125Z,13.70
2022-10-21T19:36:31.786Z,13.70
2022-10-21T19:38:58.405Z,13.70
2022-10-21T19:41:25.025Z,15.20
2022-10-21T19:43:54.709Z,13.70
2022-10-21T19:46:24.895Z,13.70
2022-10-21T19:48:52.701Z,13.70
2022-10-21T19:51:20.854Z,14.00
2022-10-21T19:53:47.691Z,13.80
2022-10-21T19:56:14.708Z,14.20
2022-10-21T19:58:43.733Z,13.80
2022-10-21T20:01:11.417Z,13.80
2022-10-21T20:03:39.200Z,13.70
2022-10-21T20:06:10.204Z,14.50
2022-10-21T20:08:38.724Z,13.80
2022-10-21T20:11:06.725Z,14.10
2022-10-21T20:13:33.395Z,13.80
2022-10-21T20:16:00.192Z,13.80
2022-10-21T20:18:27.602Z,13.90
2022-10-21T20:20:54.774Z,13.80
2022-10-21T20:23:21.774Z,15.70
2022-10-21T20:25:49.339Z,13.80
2022-10-21T20:28:16.374Z,13.80
2022-10-21T20:30:43.293Z,13.80
2022-10-21T20:33:10.030Z,15.00
2022-10-21T20:35:40.842Z,15.60
2022-10-21T20:38:07.782Z,13.80
2022-10-21T20:40:35.050Z,13.80
2022-10-21T20:43:01.790Z,14.60
2022-10-21T20:45:29.410Z,13.80
2022-10-21T20:47:56.180Z,14.60
2022-10-21T20:50:22.850Z,15.20
2022-10-21T20:52:49.594Z,13.80
2022-10-21T20:55:16.251Z,15.90
2022-10-21T20:57:43.006Z,13.90
2022-10-21T21:00:10.163Z,13.80
2022-10-21T21:02:37.019Z,13.80
2022-10-21T21:05:03.857Z,14.70
2022-10-21T21:07:30.550Z,13.90
2022-10-21T21:10:02.865Z,15.50
2022-10-21T21:12:30.280Z,13.90
2022-10-21T21:14:57.059Z,14.00
2022-10-21T21:17:23.694Z,14.00
2022-10-21T21:19:50.329Z,14.60
2022-10-21T21:22:17.013Z,14.20
2022-10-21T21:24:43.678Z,14.20
2022-10-21T21:27:10.448Z,15.60
2022-10-21T21:29:37.124Z,13.90
2022-10-21T21:32:04.027Z,14.40
2022-10-21T21:34:30.761Z,13.70
2022-10-21T21:36:57.332Z,13.70
2022-10-21T21:39:23.957Z,14.70
2022-10-21T21:41:50.826Z,13.60
2022-10-21T21:44:17.461Z,13.60
2022-10-21T21:46:44.087Z,15.40
2022-10-21T21:49:10.921Z,13.60
2022-10-21T21:51:37.631Z,13.40
2022-10-21T21:54:05.075Z,13.60
2022-10-21T21:56:31.685Z,14.30
2022-10-21T21:58:58.570Z,13.30
2022-10-21T22:01:26.613Z,13.70
2022-10-21T22:03:53.399Z,14.20
2022-10-21T22:06:21.084Z,15.00
2022-10-21T22:08:48.278Z,13.50
2022-10-21T22:11:16.712Z,14.50
2022-10-21T22:13:43.495Z,13.10
2022-10-21T22:16:11.571Z,13.50
2022-10-21T22:18:38.221Z,13.60
2022-10-21T22:21:06.808Z,14.30
2022-10-21T22:23:33.601Z,13.00
2022-10-21T22:26:00.336Z,13.10
2022-10-21T22:28:27.442Z,13.20
2022-10-21T22:30:59.005Z,13.00
2022-10-21T22:33:26.306Z,13.00
2022-10-21T22:35:52.913Z,13.10
2022-10-21T22:38:19.723Z,13.10
2022-10-21T22:40:46.274Z,13.80
2022-10-21T22:43:12.860Z,13.50
2022-10-21T22:45:39.702Z,13.00
2022-10-21T22:48:06.362Z,13.00
2022-10-21T22:50:33.005Z,13.10
2022-10-21T22:52:59.868Z,13.20
2022-10-21T22:55:26.481Z,12.80
2022-10-21T22:57:53.199Z,13.00
2022-10-21T23:00:19.952Z,13.60
2022-10-21T23:02:46.629Z,13.40
2022-10-21T23:05:13.562Z,12.80
2022-10-21T23:07:40.489Z,14.20
2022-10-21T23:12:34.029Z,12.60
2022-10-21T23:15:00.702Z,12.70
2022-10-21T23:17:27.634Z,12.90
2022-10-21T23:19:54.269Z,13.50
2022-10-21T23:22:21.174Z,13.50
2022-10-21T23:24:47.842Z,12.60
2022-10-21T23:27:14.493Z,12.60
2022-10-21T23:29:41.043Z,12.60
2022-10-21T23:32:07.607Z,13.70
2022-10-21T23:34:34.372Z,12.80
2022-10-21T23:37:00.981Z,12.60
2022-10-21T23:39:27.579Z,13.40
2022-10-21T23:41:54.222Z,12.50
2022-10-21T23:44:20.946Z,12.50
2022-10-21T23:46:47.614Z,14.10
2022-10-21T23:49:14.301Z,13.90
2022-10-21T23:51:41.011Z,12.50
2022-10-21T23:54:07.695Z,12.60
2022-10-21T23:56:34.784Z,14.10
2022-10-21T23:59:01.625Z,12.90
